This is the latest recevied weather packets stored in our database for station/object DH4SBM. If no packets are shown the sender has not sent any weather packets the latest 10 day(s).
| Time | Temp. | Humidity | Pressure | Rain* | Wind** | Luminosity | Snow |
|---|---|---|---|---|---|---|---|
| 1777882544 | 18.33° C | 60% | 1016.5 hPa | 0 mm | - | 325 W/m² | - |
| 1777881944 | 17.78° C | 60% | 1016.6 hPa | 0 mm | - | 392 W/m² | - |
| 1777881344 | 17.22° C | 62% | 1016.5 hPa | 0 mm | - | 380 W/m² | - |
| 1777880744 | 16.67° C | 64% | 1016.4 hPa | 0 mm | - | 350 W/m² | - |
| 1777880144 | 16.11° C | 69% | 1016.4 hPa | 0 mm | - | 174 W/m² | - |
| 1777879544 | 15.56° C | 72% | 1016.4 hPa | 0 mm | - | 174 W/m² | - |
| 1777878943 | 15° C | 73% | 1016.4 hPa | 0 mm | - | 174 W/m² | - |
| 1777878343 | 14.44° C | 74% | 1016.3 hPa | 0 mm | - | 174 W/m² | - |
| 1777877744 | 13.89° C | 74% | 1016.3 hPa | 0 mm | - | 176 W/m² | - |
| 1777877142 | 13.89° C | 76% | 1016.2 hPa | 0 mm | - | 165 W/m² | - |
| 1777876703 | 13.89° C | 77% | 1016.1 hPa | 0 mm | - | 190 W/m² | - |
| 1777876103 | 13.33° C | 80% | 1016.1 hPa | 0 mm | - | 148 W/m² | - |
| 1777875503 | 13.33° C | 80% | 1016.2 hPa | 0 mm | - | 156 W/m² | - |
| 1777874903 | 12.78° C | 80% | 1016.1 hPa | 0 mm | - | 160 W/m² | - |
| 1777874303 | 12.78° C | 81% | 1016.2 hPa | 0 mm | - | 190 W/m² | - |
| 1777873703 | 12.22° C | 83% | 1016.3 hPa | 0 mm | - | 213 W/m² | - |
| 1777873103 | 11.67° C | 84% | 1016.3 hPa | 0 mm | - | 142 W/m² | - |
| 1777872503 | 11.67° C | 84% | 1016.3 hPa | 0 mm | - | 120 W/m² | - |
| 1777871903 | 11.11° C | 85% | 1016.2 hPa | 0 mm | - | 149 W/m² | - |
| 1777871302 | 10.56° C | 85% | 1016.2 hPa | 0 mm | - | 128 W/m² | - |
| 1777870703 | 10.56° C | 85% | 1016.2 hPa | 0 mm | - | 69 W/m² | - |
| 1777870103 | 10.56° C | 84% | 1016.2 hPa | 0 mm | - | 53 W/m² | - |
| 1777869502 | 10.56° C | 84% | 1016.1 hPa | 0 mm | - | 28 W/m² | - |
| 1777869338 | 10.56° C | 84% | 1016.1 hPa | 0 mm | - | 28 W/m² | - |
| 1777868738 | 11.11° C | 84% | 1016.1 hPa | 0 mm | - | 14 W/m² | - |
* Rain latest hour (hover to see other rain measurements)
** Current wind speed in m/s (hover to see current wind gust speed)